Time;durP1;ratioP1;P1;durP2;ratioP2;P2;SDS_P1;SDS_P2;PMS_P1;PMS_P2;Temp;Humidity;BMP_temperature;BMP_pressure;BME280_temperature;BME280_humidity;BME280_pressure;Samples;Min_cycle;Max_cycle;Signal;HPM_P1;HPM_P2
2021/08/21 00:01:57;;;;;;;8.68;3.03;;;;;;;;;;4971178;28;20023;-66
2021/08/21 00:04:23;;;;;;;6.75;3.05;;;;;;;;;;4973696;28;20042;-68
2021/08/21 00:06:49;;;;;;;8.98;3.85;;;;;;;;;;4975797;28;20019;-67
2021/08/21 00:09:15;;;;;;;6.53;3.30;;;;;;;;;;4974466;28;20031;-68
2021/08/21 00:11:41;;;;;;;6.03;3.42;;;;;;;;;;4974248;28;20050;-66
2021/08/21 00:14:08;;;;;;;6.72;3.30;;;;;;;;;;4975156;28;20022;-71
2021/08/21 00:16:34;;;;;;;4.97;3.20;;;;;;;;;;4973568;28;20034;-66
2021/08/21 00:19:00;;;;;;;6.35;3.33;;;;;;;;;;4974686;28;20057;-67
2021/08/21 00:21:26;;;;;;;4.80;3.45;;;;;;;;;;4974380;28;20042;-67
2021/08/21 00:23:53;;;;;;;8.00;3.30;;;;;;;;;;4975051;28;20030;-67
2021/08/21 00:26:19;;;;;;;9.52;3.30;;;;;;;;;;4974090;28;20042;-66
2021/08/21 00:28:45;;;;;;;7.90;3.25;;;;;;;;;;4973196;28;20027;-67
2021/08/21 00:31:11;;;;;;;6.55;3.08;;;;;;;;;;4970743;28;20389;-66
2021/08/21 00:33:37;;;;;;;7.07;3.28;;;;;;;;;;4973849;28;20023;-67
2021/08/21 00:36:03;;;;;;;4.60;3.00;;;;;;;;;;4973997;28;20050;-68
2021/08/21 00:38:29;;;;;;;5.70;3.10;;;;;;;;;;4974044;28;20039;-67
2021/08/21 00:40:56;;;;;;;6.60;2.90;;;;;;;;;;4974762;28;20095;-67
2021/08/21 00:43:22;;;;;;;5.15;3.10;;;;;;;;;;4974725;28;20038;-67
2021/08/21 00:45:48;;;;;;;7.00;3.30;;;;;;;;;;4973393;28;20117;-70
2021/08/21 00:48:15;;;;;;;6.65;3.33;;;;;;;;;;4972976;28;20055;-66
2021/08/21 00:50:42;;;;;;;6.03;3.13;;;;;;;;;;4973798;28;20492;-67
2021/08/21 00:53:08;;;;;;;7.05;3.25;;;;;;;;;;4973459;28;20058;-66
2021/08/21 00:55:34;;;;;;;5.63;3.30;;;;;;;;;;4973600;28;20043;-66
2021/08/21 00:58:00;;;;;;;7.53;3.08;;;;;;;;;;4973986;28;20074;-67
2021/08/21 01:00:26;;;;;;;6.57;3.30;;;;;;;;;;4974376;28;20080;-70
2021/08/21 01:02:52;;;;;;;8.40;3.50;;;;;;;;;;4980108;28;20035;-66
2021/08/21 01:05:19;;;;;;;5.95;3.38;;;;;;;;;;4974164;28;20034;-66
2021/08/21 01:07:45;;;;;;;7.00;2.88;;;;;;;;;;4972866;28;20089;-70
2021/08/21 01:10:13;;;;;;;5.20;3.00;;;;;;;;;;4974513;28;20366;-69
2021/08/21 01:12:39;;;;;;;4.22;3.17;;;;;;;;;;4973777;28;20164;-66
2021/08/21 01:15:06;;;;;;;5.07;3.20;;;;;;;;;;4973091;28;20034;-67
2021/08/21 01:17:33;;;;;;;4.40;3.17;;;;;;;;;;4973761;28;20027;-67
2021/08/21 01:20:01;;;;;;;6.80;3.05;;;;;;;;;;4972358;28;20042;-75
2021/08/21 01:22:28;;;;;;;6.13;3.20;;;;;;;;;;4974063;28;20602;-71
2021/08/21 01:24:58;;;;;;;4.15;2.67;;;;;;;;;;4972428;28;20031;-66
2021/08/21 01:27:24;;;;;;;5.35;3.20;;;;;;;;;;4972450;28;20027;-73
2021/08/21 01:29:50;;;;;;;8.95;3.42;;;;;;;;;;4973152;28;20054;-67
2021/08/21 01:32:16;;;;;;;5.18;3.33;;;;;;;;;;4978142;28;20041;-66
2021/08/21 01:34:43;;;;;;;7.25;3.28;;;;;;;;;;4970390;28;20078;-73
2021/08/21 01:37:09;;;;;;;6.13;3.28;;;;;;;;;;4971377;28;20039;-66
2021/08/21 01:39:35;;;;;;;6.97;3.40;;;;;;;;;;4972041;28;20031;-67
2021/08/21 01:42:01;;;;;;;7.43;3.60;;;;;;;;;;4972809;28;20535;-76
2021/08/21 01:44:27;;;;;;;4.63;3.08;;;;;;;;;;4973260;28;20025;-75
2021/08/21 01:46:53;;;;;;;6.50;3.25;;;;;;;;;;4975553;28;20412;-66
2021/08/21 01:49:22;;;;;;;7.35;3.25;;;;;;;;;;4971554;28;20432;-67
2021/08/21 01:51:49;;;;;;;4.25;3.03;;;;;;;;;;4973856;28;20022;-66
2021/08/21 01:54:15;;;;;;;6.38;3.38;;;;;;;;;;4972306;28;20058;-67
2021/08/21 01:56:44;;;;;;;6.57;2.85;;;;;;;;;;4972829;28;20030;-67
2021/08/21 01:59:17;;;;;;;4.70;3.22;;;;;;;;;;4972590;28;20042;-77
2021/08/21 02:01:44;;;;;;;7.47;3.60;;;;;;;;;;4974761;28;20046;-67
2021/08/21 02:04:10;;;;;;;4.63;3.35;;;;;;;;;;4971679;28;20033;-74
2021/08/21 02:06:36;;;;;;;6.22;3.10;;;;;;;;;;4971049;28;20027;-78
2021/08/21 02:09:03;;;;;;;3.72;3.00;;;;;;;;;;4970785;28;20042;-68
2021/08/21 02:11:29;;;;;;;5.85;3.30;;;;;;;;;;4970877;28;20030;-67
2021/08/21 02:13:55;;;;;;;6.65;3.00;;;;;;;;;;4971617;28;20480;-67
2021/08/21 02:16:21;;;;;;;4.75;3.03;;;;;;;;;;4971429;28;20035;-67
2021/08/21 02:18:47;;;;;;;6.32;3.25;;;;;;;;;;4972134;28;20026;-69
2021/08/21 02:21:16;;;;;;;12.48;3.60;;;;;;;;;;4971487;28;20039;-67
2021/08/21 02:23:42;;;;;;;7.53;3.35;;;;;;;;;;4971247;28;20545;-67
2021/08/21 02:26:08;;;;;;;5.95;3.03;;;;;;;;;;4969082;28;20035;-66
2021/08/21 02:28:34;;;;;;;9.82;3.50;;;;;;;;;;4972657;28;20038;-67
2021/08/21 02:31:00;;;;;;;5.68;3.20;;;;;;;;;;4971473;28;20118;-66
2021/08/21 02:33:26;;;;;;;6.25;3.13;;;;;;;;;;4970248;28;20480;-66
2021/08/21 02:35:52;;;;;;;4.43;2.95;;;;;;;;;;4971152;28;20389;-64
2021/08/21 02:38:18;;;;;;;4.00;3.10;;;;;;;;;;4971017;28;20429;-76
2021/08/21 02:40:44;;;;;;;5.00;3.35;;;;;;;;;;4971949;28;20043;-69
2021/08/21 02:43:12;;;;;;;5.10;3.03;;;;;;;;;;4971591;28;20030;-67
2021/08/21 02:45:38;;;;;;;5.88;3.30;;;;;;;;;;4970155;28;20054;-66
2021/08/21 02:48:04;;;;;;;3.78;2.80;;;;;;;;;;4971354;28;20059;-65
2021/08/21 02:50:31;;;;;;;6.70;3.10;;;;;;;;;;4971643;28;20030;-68
2021/08/21 02:52:57;;;;;;;6.97;3.03;;;;;;;;;;4970330;28;20026;-66
2021/08/21 02:55:23;;;;;;;4.72;3.38;;;;;;;;;;4970309;28;20023;-66
2021/08/21 02:57:49;;;;;;;5.40;3.05;;;;;;;;;;4970798;28;20022;-65
2021/08/21 03:00:15;;;;;;;5.30;3.17;;;;;;;;;;4970635;28;20137;-66
2021/08/21 03:02:41;;;;;;;4.45;3.45;;;;;;;;;;4970446;28;20019;-66
2021/08/21 03:05:08;;;;;;;5.85;3.10;;;;;;;;;;4970729;28;20035;-66
2021/08/21 03:07:34;;;;;;;3.92;3.25;;;;;;;;;;4970147;28;20019;-65
2021/08/21 03:10:00;;;;;;;4.88;3.13;;;;;;;;;;4971414;28;20031;-66
2021/08/21 03:12:29;;;;;;;4.95;3.30;;;;;;;;;;4971501;28;20027;-65
2021/08/21 03:14:55;;;;;;;5.78;2.90;;;;;;;;;;4969313;28;20540;-64
2021/08/21 03:17:21;;;;;;;6.50;3.28;;;;;;;;;;4969785;28;20097;-66
2021/08/21 03:19:47;;;;;;;4.43;3.05;;;;;;;;;;4970353;28;20473;-65
2021/08/21 03:22:13;;;;;;;5.82;3.30;;;;;;;;;;4971378;28;20489;-75
2021/08/21 03:24:39;;;;;;;7.05;3.30;;;;;;;;;;4968197;28;20110;-66
2021/08/21 03:27:05;;;;;;;5.47;3.20;;;;;;;;;;4969800;28;20441;-65
2021/08/21 03:29:31;;;;;;;5.45;3.15;;;;;;;;;;4971218;28;20045;-67
2021/08/21 03:31:57;;;;;;;3.90;3.08;;;;;;;;;;4971580;28;20163;-64
2021/08/21 03:34:24;;;;;;;4.50;2.70;;;;;;;;;;4970129;28;20049;-65
2021/08/21 03:36:51;;;;;;;8.23;3.45;;;;;;;;;;4968782;28;20035;-69
2021/08/21 03:39:17;;;;;;;4.70;3.08;;;;;;;;;;4972474;28;20031;-71
2021/08/21 03:41:43;;;;;;;5.55;3.58;;;;;;;;;;4973247;28;20043;-67
2021/08/21 03:44:10;;;;;;;4.20;3.03;;;;;;;;;;4975088;28;20540;-65
2021/08/21 03:46:36;;;;;;;5.95;3.78;;;;;;;;;;4975491;28;20289;-65
2021/08/21 03:49:02;;;;;;;5.70;3.70;;;;;;;;;;4974736;28;20053;-78
2021/08/21 03:51:28;;;;;;;6.68;3.50;;;;;;;;;;4975150;28;20432;-67
2021/08/21 03:53:54;;;;;;;5.55;3.33;;;;;;;;;;4978431;28;20392;-66
2021/08/21 03:56:20;;;;;;;5.10;3.53;;;;;;;;;;4974156;28;20033;-66
2021/08/21 03:58:46;;;;;;;12.15;3.65;;;;;;;;;;4975456;28;20062;-66
2021/08/21 04:01:12;;;;;;;9.10;3.80;;;;;;;;;;4975672;28;20503;-69
2021/08/21 04:03:38;;;;;;;13.20;4.43;;;;;;;;;;4974674;28;20128;-67
2021/08/21 04:06:06;;;;;;;8.35;3.80;;;;;;;;;;4975334;28;20389;-67
2021/08/21 04:08:37;;;;;;;5.47;3.70;;;;;;;;;;4972918;28;20023;-66
2021/08/21 04:11:03;;;;;;;7.35;3.28;;;;;;;;;;4974746;28;20152;-67
2021/08/21 04:13:29;;;;;;;7.38;3.72;;;;;;;;;;4975394;28;20027;-67
2021/08/21 04:15:55;;;;;;;6.65;3.50;;;;;;;;;;4974499;28;20069;-69
2021/08/21 04:18:22;;;;;;;10.05;3.90;;;;;;;;;;4973955;28;20026;-66
2021/08/21 04:20:48;;;;;;;6.35;3.45;;;;;;;;;;4974715;28;20369;-67
2021/08/21 04:23:14;;;;;;;7.93;3.40;;;;;;;;;;4974745;28;20025;-72
2021/08/21 04:25:40;;;;;;;6.75;4.00;;;;;;;;;;4974886;28;20023;-67
2021/08/21 04:28:06;;;;;;;4.75;3.05;;;;;;;;;;4973628;28;20027;-68
2021/08/21 04:30:32;;;;;;;9.32;3.47;;;;;;;;;;4974034;28;20473;-65
2021/08/21 04:32:58;;;;;;;4.38;3.15;;;;;;;;;;4974661;28;20019;-65
2021/08/21 04:35:24;;;;;;;6.63;3.70;;;;;;;;;;4975216;28;20034;-72
2021/08/21 04:37:50;;;;;;;7.35;3.50;;;;;;;;;;4974493;28;20101;-68
2021/08/21 04:40:17;;;;;;;4.95;3.40;;;;;;;;;;4973225;28;20027;-66
2021/08/21 04:42:43;;;;;;;5.05;3.58;;;;;;;;;;4974979;28;20027;-73
2021/08/21 04:45:10;;;;;;;5.35;3.55;;;;;;;;;;4972963;28;20015;-67
2021/08/21 04:47:36;;;;;;;6.70;3.58;;;;;;;;;;4975013;28;20125;-68
2021/08/21 04:50:03;;;;;;;8.13;3.75;;;;;;;;;;4973250;28;20031;-67
2021/08/21 04:52:30;;;;;;;6.10;3.35;;;;;;;;;;4971783;28;20035;-66
2021/08/21 04:54:56;;;;;;;6.40;3.58;;;;;;;;;;4973697;28;20090;-67
2021/08/21 04:57:22;;;;;;;6.22;3.33;;;;;;;;;;4974030;28;20027;-72
2021/08/21 04:59:48;;;;;;;6.82;3.85;;;;;;;;;;4978570;28;20043;-64
2021/08/21 05:02:16;;;;;;;6.68;3.40;;;;;;;;;;4975192;28;20784;-67
2021/08/21 05:04:42;;;;;;;8.48;3.63;;;;;;;;;;4978539;28;20110;-66
2021/08/21 05:07:09;;;;;;;9.80;3.45;;;;;;;;;;4970241;28;20037;-64
2021/08/21 05:09:35;;;;;;;8.32;3.58;;;;;;;;;;4975559;28;20030;-63
2021/08/21 05:12:01;;;;;;;9.57;3.75;;;;;;;;;;4982984;28;20093;-65
2021/08/21 05:14:27;;;;;;;7.18;3.97;;;;;;;;;;4990985;28;20456;-63
2021/08/21 05:16:53;;;;;;;5.70;3.50;;;;;;;;;;4973022;28;20023;-64
2021/08/21 05:19:33;;;;;;;5.82;3.45;;;;;;;;;;4974569;28;20027;-67
2021/08/21 05:22:24;;;;;;;5.18;3.70;;;;;;;;;;4972945;28;20023;-68
2021/08/21 05:24:45;;;;;;;7.75;4.20;;;;;;;;;;4983467;28;20455;-67
2021/08/21 05:27:18;;;;;;;17.75;4.60;;;;;;;;;;4975001;28;20481;-68
2021/08/21 05:29:45;;;;;;;14.18;4.72;;;;;;;;;;4973297;28;20035;-70
2021/08/21 05:32:11;;;;;;;10.57;4.60;;;;;;;;;;4975720;28;20062;-71
2021/08/21 05:34:40;;;;;;;11.18;4.00;;;;;;;;;;4966363;28;20035;-65
2021/08/21 05:37:06;;;;;;;9.10;3.47;;;;;;;;;;4973858;28;20053;-70
2021/08/21 05:39:32;;;;;;;7.72;3.58;;;;;;;;;;4973424;28;20031;-68
2021/08/21 05:41:58;;;;;;;11.45;3.83;;;;;;;;;;4972484;28;20034;-73
2021/08/21 05:44:25;;;;;;;7.32;3.63;;;;;;;;;;4978365;28;20030;-69
2021/08/21 05:46:51;;;;;;;10.80;4.53;;;;;;;;;;4974868;28;20535;-67
2021/08/21 05:49:17;;;;;;;10.20;4.00;;;;;;;;;;4979690;28;20038;-68
2021/08/21 05:51:43;;;;;;;8.70;4.00;;;;;;;;;;4974115;28;20041;-68
2021/08/21 05:54:12;;;;;;;7.47;4.35;;;;;;;;;;4971440;28;20057;-82
2021/08/21 05:56:38;;;;;;;10.65;4.47;;;;;;;;;;4969185;28;20034;-74
2021/08/21 05:59:04;;;;;;;11.65;4.80;;;;;;;;;;4969728;28;20031;-78
2021/08/21 06:01:32;;;;;;;7.93;4.05;;;;;;;;;;4969745;28;20046;-71
2021/08/21 06:03:58;;;;;;;6.10;4.13;;;;;;;;;;4974744;28;20061;-77
2021/08/21 06:06:26;;;;;;;10.25;4.13;;;;;;;;;;4974807;28;20404;-80
2021/08/21 06:08:52;;;;;;;8.63;3.78;;;;;;;;;;4977557;28;20029;-81
2021/08/21 06:11:18;;;;;;;10.30;4.30;;;;;;;;;;4974765;28;20030;-72
2021/08/21 06:13:44;;;;;;;6.38;4.03;;;;;;;;;;4971190;28;20029;-70
2021/08/21 06:16:10;;;;;;;9.50;4.35;;;;;;;;;;4971233;28;20102;-66
2021/08/21 06:18:36;;;;;;;10.07;4.47;;;;;;;;;;4968008;28;20031;-66
2021/08/21 06:21:02;;;;;;;12.73;5.18;;;;;;;;;;4974598;28;20122;-66
2021/08/21 06:23:28;;;;;;;8.38;4.22;;;;;;;;;;4972480;28;20030;-78
2021/08/21 06:25:54;;;;;;;7.13;4.18;;;;;;;;;;4971210;28;20034;-73
2021/08/21 06:28:20;;;;;;;8.05;4.00;;;;;;;;;;4977696;28;20026;-72
2021/08/21 06:30:46;;;;;;;7.30;3.90;;;;;;;;;;4955016;28;20042;-81
2021/08/21 06:33:18;;;;;;;10.77;3.85;;;;;;;;;;4971386;28;20078;-72
2021/08/21 06:35:44;;;;;;;11.80;3.95;;;;;;;;;;4971194;28;20708;-70
2021/08/21 06:38:10;;;;;;;6.85;3.30;;;;;;;;;;4971498;28;20035;-71
2021/08/21 06:40:37;;;;;;;12.23;4.60;;;;;;;;;;4973063;28;20038;-68
2021/08/21 06:43:03;;;;;;;7.85;3.60;;;;;;;;;;4973603;28;21558;-68
2021/08/21 06:45:29;;;;;;;7.60;3.97;;;;;;;;;;4963527;28;20027;-69
2021/08/21 06:47:55;;;;;;;11.07;4.32;;;;;;;;;;4971247;28;20134;-68
2021/08/21 06:50:22;;;;;;;11.35;4.35;;;;;;;;;;4956903;28;20039;-75
2021/08/21 06:52:49;;;;;;;7.07;3.88;;;;;;;;;;4970231;28;20488;-75
2021/08/21 06:55:15;;;;;;;14.95;6.03;;;;;;;;;;4979523;28;20030;-80
2021/08/21 06:57:41;;;;;;;9.35;4.07;;;;;;;;;;4973899;28;20027;-70
2021/08/21 07:00:08;;;;;;;16.75;5.25;;;;;;;;;;4973151;28;20062;-76
2021/08/21 07:02:34;;;;;;;15.50;5.28;;;;;;;;;;4953558;28;20034;-78
2021/08/21 07:05:00;;;;;;;10.25;4.60;;;;;;;;;;4970969;28;20030;-70
2021/08/21 07:07:30;;;;;;;8.77;4.90;;;;;;;;;;4953721;28;20027;-75
2021/08/21 07:09:56;;;;;;;12.43;5.10;;;;;;;;;;4963437;28;20544;-68
2021/08/21 07:12:22;;;;;;;12.90;5.32;;;;;;;;;;4969422;28;20174;-76
2021/08/21 07:14:51;;;;;;;13.35;5.18;;;;;;;;;;4976059;28;20033;-73
2021/08/21 07:17:18;;;;;;;13.52;5.03;;;;;;;;;;4977607;28;20046;-70
2021/08/21 07:19:44;;;;;;;16.50;5.22;;;;;;;;;;4974793;28;20023;-67
2021/08/21 07:22:10;;;;;;;10.52;4.47;;;;;;;;;;4979595;28;20062;-66
2021/08/21 07:24:36;;;;;;;13.45;4.95;;;;;;;;;;4975029;28;20023;-64
2021/08/21 07:27:03;;;;;;;12.23;5.00;;;;;;;;;;4972984;28;20139;-65
2021/08/21 07:29:29;;;;;;;11.57;4.53;;;;;;;;;;4974474;28;20034;-71
2021/08/21 07:31:55;;;;;;;16.25;5.10;;;;;;;;;;4971648;28;20386;-69
2021/08/21 07:34:22;;;;;;;18.25;5.32;;;;;;;;;;4975403;28;20105;-73
2021/08/21 07:36:48;;;;;;;12.65;5.50;;;;;;;;;;4976878;28;20481;-70
2021/08/21 07:39:14;;;;;;;11.75;4.82;;;;;;;;;;4973784;28;20026;-69
2021/08/21 07:41:40;;;;;;;19.08;5.95;;;;;;;;;;4976730;28;20047;-71
2021/08/21 07:44:06;;;;;;;17.50;5.18;;;;;;;;;;4974027;28;20030;-65
2021/08/21 07:49:27;;;;;;;15.15;5.40;;;;;;;;;;4972096;28;20051;-72
2021/08/21 07:51:53;;;;;;;12.13;4.78;;;;;;;;;;4983161;28;20019;-72
2021/08/21 07:54:19;;;;;;;13.70;4.65;;;;;;;;;;4976771;28;20035;-71
2021/08/21 07:56:45;;;;;;;13.98;5.20;;;;;;;;;;4963835;28;20452;-75
2021/08/21 07:59:11;;;;;;;13.27;4.60;;;;;;;;;;4977060;28;20489;-76
2021/08/21 08:01:37;;;;;;;11.15;4.88;;;;;;;;;;4972846;28;20130;-78
2021/08/21 08:04:07;;;;;;;15.93;4.85;;;;;;;;;;4958429;28;20035;-69
2021/08/21 08:06:33;;;;;;;18.70;5.00;;;;;;;;;;4973463;28;20030;-75
2021/08/21 08:09:02;;;;;;;44.22;6.07;;;;;;;;;;4974539;28;20019;-70
2021/08/21 08:11:31;;;;;;;10.55;4.10;;;;;;;;;;4956625;28;20026;-70
2021/08/21 08:13:57;;;;;;;14.90;5.47;;;;;;;;;;4976484;28;20035;-75
2021/08/21 08:16:23;;;;;;;15.20;4.75;;;;;;;;;;4974666;28;20094;-68
2021/08/21 08:42:07;;;;;;;10.27;3.97;;;;;;;;;;4257890;23;20124;-69
2021/08/21 08:44:33;;;;;;;11.30;3.85;;;;;;;;;;5004486;28;20514;-74
2021/08/21 08:47:00;;;;;;;7.63;3.78;;;;;;;;;;5008353;28;20033;-73
2021/08/21 08:49:27;;;;;;;8.50;3.95;;;;;;;;;;5011991;28;20022;-78
2021/08/21 08:51:53;;;;;;;14.15;3.72;;;;;;;;;;5008740;28;20042;-73
2021/08/21 08:54:20;;;;;;;6.90;3.55;;;;;;;;;;4995796;28;20042;-71
2021/08/21 08:56:46;;;;;;;7.55;3.53;;;;;;;;;;5010061;28;20171;-74
2021/08/21 08:59:12;;;;;;;5.10;3.03;;;;;;;;;;5016628;28;20091;-79
2021/08/21 09:01:42;;;;;;;5.80;3.22;;;;;;;;;;5007402;28;20045;-87
2021/08/21 09:04:14;;;;;;;7.28;3.30;;;;;;;;;;5010471;28;20034;-81
2021/08/21 09:06:40;;;;;;;5.65;3.40;;;;;;;;;;5013961;28;20529;-85
2021/08/21 09:09:10;;;;;;;6.00;3.42;;;;;;;;;;5015186;28;20064;-83
2021/08/21 09:11:40;;;;;;;6.03;3.35;;;;;;;;;;5014537;28;20025;-74
2021/08/21 09:14:27;;;;;;;7.68;3.28;;;;;;;;;;5010433;28;20036;-85
2021/08/21 09:16:53;;;;;;;5.53;3.40;;;;;;;;;;5011649;28;20034;-71
2021/08/21 09:19:26;;;;;;;6.75;3.30;;;;;;;;;;5008435;28;20061;-79
2021/08/21 09:22:02;;;;;;;5.50;3.53;;;;;;;;;;5011921;28;20053;-68
2021/08/21 09:24:28;;;;;;;6.65;3.28;;;;;;;;;;5013236;28;20077;-73
2021/08/21 09:26:54;;;;;;;4.57;3.33;;;;;;;;;;5008183;28;20515;-71
2021/08/21 09:29:29;;;;;;;4.50;3.50;;;;;;;;;;5013789;28;20021;-73
2021/08/21 09:32:06;;;;;;;6.43;3.35;;;;;;;;;;5011780;28;20046;-74
2021/08/21 09:34:36;;;;;;;4.38;3.50;;;;;;;;;;5013134;28;20030;-77
2021/08/21 09:37:02;;;;;;;5.45;3.67;;;;;;;;;;5008679;28;20157;-74
2021/08/21 09:39:47;;;;;;;5.38;3.40;;;;;;;;;;5013938;28;20565;-80
2021/08/21 09:42:13;;;;;;;7.22;3.75;;;;;;;;;;5007505;28;20503;-82
2021/08/21 09:44:41;;;;;;;16.30;4.22;;;;;;;;;;5009404;28;20030;-80
2021/08/21 09:47:13;;;;;;;6.65;3.60;;;;;;;;;;5004996;28;20029;-86
2021/08/21 09:49:39;;;;;;;6.55;3.50;;;;;;;;;;4993274;28;20026;-83
2021/08/21 09:52:14;;;;;;;6.60;3.80;;;;;;;;;;4994385;28;20054;-90
2021/08/21 09:54:41;;;;;;;5.38;3.40;;;;;;;;;;5015376;28;20380;-82
2021/08/21 09:57:07;;;;;;;5.53;3.63;;;;;;;;;;5007704;28;20081;-84
2021/08/21 09:59:37;;;;;;;10.82;3.85;;;;;;;;;;4995817;28;20042;-66
2021/08/21 10:02:07;;;;;;;4.35;3.30;;;;;;;;;;5012595;28;20049;-68
2021/08/21 10:04:33;;;;;;;6.53;4.05;;;;;;;;;;5012928;28;20033;-83
2021/08/21 10:07:03;;;;;;;6.35;3.38;;;;;;;;;;5012336;28;20093;-90
2021/08/21 10:09:30;;;;;;;5.00;3.15;;;;;;;;;;5008302;28;20079;-75
2021/08/21 10:11:56;;;;;;;6.40;3.50;;;;;;;;;;5012233;28;20373;-71
2021/08/21 10:14:24;;;;;;;9.05;4.05;;;;;;;;;;5008349;28;20034;-70
2021/08/21 10:16:50;;;;;;;5.32;3.47;;;;;;;;;;5008698;28;20034;-73
2021/08/21 10:19:18;;;;;;;8.30;4.05;;;;;;;;;;5011844;28;20030;-77
2021/08/21 10:21:54;;;;;;;6.80;3.65;;;;;;;;;;5009183;28;20109;-66
2021/08/21 10:24:25;;;;;;;6.63;3.90;;;;;;;;;;5012582;28;20025;-68
2021/08/21 10:26:53;;;;;;;9.15;3.58;;;;;;;;;;5007454;28;20041;-67
2021/08/21 10:29:20;;;;;;;7.05;3.50;;;;;;;;;;5010403;28;20104;-82
2021/08/21 10:31:49;;;;;;;4.72;3.45;;;;;;;;;;5015293;28;20026;-87
2021/08/21 10:34:15;;;;;;;14.38;3.80;;;;;;;;;;4996060;28;20041;-71
2021/08/21 10:36:51;;;;;;;8.13;3.63;;;;;;;;;;5010194;28;20026;-79
2021/08/21 10:39:26;;;;;;;5.78;3.60;;;;;;;;;;4990066;28;20033;-77
2021/08/21 10:41:53;;;;;;;4.65;3.38;;;;;;;;;;4991070;28;20061;-69
2021/08/21 10:44:42;;;;;;;5.05;3.45;;;;;;;;;;5009320;28;20073;-69
2021/08/21 10:47:09;;;;;;;10.88;4.05;;;;;;;;;;4954729;28;20097;-68
2021/08/21 10:49:45;;;;;;;5.35;3.70;;;;;;;;;;4946990;28;20163;-62
2021/08/21 10:52:30;;;;;;;6.22;3.72;;;;;;;;;;4946455;28;20561;-64
2021/08/21 10:54:56;;;;;;;6.18;3.65;;;;;;;;;;4947427;28;20074;-71
2021/08/21 10:57:31;;;;;;;7.93;3.95;;;;;;;;;;4951649;28;20106;-67
2021/08/21 10:59:57;;;;;;;8.07;3.42;;;;;;;;;;4941934;28;20059;-62
2021/08/21 11:02:26;;;;;;;6.47;3.80;;;;;;;;;;4952569;28;20031;-66
2021/08/21 11:04:56;;;;;;;7.40;4.15;;;;;;;;;;4947948;28;20039;-67
2021/08/21 11:07:31;;;;;;;5.75;3.60;;;;;;;;;;4950343;28;20062;-69
2021/08/21 11:10:16;;;;;;;8.38;4.28;;;;;;;;;;4943314;28;20409;-68
2021/08/21 11:12:44;;;;;;;8.13;4.10;;;;;;;;;;4949711;28;20043;-64
2021/08/21 11:15:16;;;;;;;5.93;3.80;;;;;;;;;;4950988;28;20027;-68
2021/08/21 11:17:42;;;;;;;15.18;4.55;;;;;;;;;;4949303;28;20047;-64
2021/08/21 11:20:28;;;;;;;7.85;3.50;;;;;;;;;;4946846;28;20111;-68
2021/08/21 11:23:06;;;;;;;5.90;3.70;;;;;;;;;;4946868;28;20035;-64
2021/08/21 11:25:33;;;;;;;6.53;4.00;;;;;;;;;;5005426;28;20073;-62
2021/08/21 11:28:06;;;;;;;5.78;3.65;;;;;;;;;;5011251;28;20029;-67
2021/08/21 11:30:33;;;;;;;6.57;3.72;;;;;;;;;;5011472;28;20037;-68
2021/08/21 11:33:04;;;;;;;5.57;3.60;;;;;;;;;;5011761;28;20153;-67
2021/08/21 11:35:47;;;;;;;8.18;4.10;;;;;;;;;;5011042;28;20034;-65
2021/08/21 11:38:14;;;;;;;5.03;3.83;;;;;;;;;;4980460;28;20092;-67
2021/08/21 11:40:44;;;;;;;8.25;3.50;;;;;;;;;;5005997;28;20439;-68
2021/08/21 11:43:15;;;;;;;4.88;3.63;;;;;;;;;;5007329;28;20403;-62
2021/08/21 11:45:41;;;;;;;6.80;4.10;;;;;;;;;;5005855;28;20021;-66
2021/08/21 11:48:07;;;;;;;7.20;3.63;;;;;;;;;;5010135;28;20030;-69
2021/08/21 11:50:38;;;;;;;6.63;3.83;;;;;;;;;;5009233;28;20105;-64
2021/08/21 11:53:05;;;;;;;7.55;3.70;;;;;;;;;;5010324;28;20026;-69
2021/08/21 11:55:32;;;;;;;6.80;3.80;;;;;;;;;;5008822;28;20431;-62
2021/08/21 11:57:58;;;;;;;5.60;3.78;;;;;;;;;;5010200;28;20018;-69
2021/08/21 12:00:26;;;;;;;7.22;3.80;;;;;;;;;;5012634;28;20030;-69
2021/08/21 12:02:56;;;;;;;5.80;3.78;;;;;;;;;;4992566;28;20029;-65
2021/08/21 12:05:31;;;;;;;5.95;3.85;;;;;;;;;;5010386;28;20423;-65
2021/08/21 12:07:58;;;;;;;6.22;3.83;;;;;;;;;;5014295;28;20396;-62
2021/08/21 12:10:24;;;;;;;11.50;3.95;;;;;;;;;;5012464;28;20045;-67
2021/08/21 12:12:54;;;;;;;6.78;4.07;;;;;;;;;;5010347;28;20047;-70
2021/08/21 12:15:22;;;;;;;5.70;3.85;;;;;;;;;;5013669;28;20510;-63
2021/08/21 12:17:48;;;;;;;10.23;4.50;;;;;;;;;;4995784;28;20045;-67
2021/08/21 12:20:14;;;;;;;6.43;4.13;;;;;;;;;;5006550;28;20030;-61
2021/08/21 12:22:44;;;;;;;6.22;4.07;;;;;;;;;;5009899;28;20065;-66
2021/08/21 12:25:10;;;;;;;5.13;4.00;;;;;;;;;;5017664;28;20021;-67
2021/08/21 12:27:36;;;;;;;5.55;3.60;;;;;;;;;;5013768;28;20022;-65
2021/08/21 12:30:07;;;;;;;7.18;3.70;;;;;;;;;;5013103;28;20484;-63
2021/08/21 12:32:33;;;;;;;18.42;4.70;;;;;;;;;;5019212;28;20033;-63
2021/08/21 12:35:09;;;;;;;5.10;3.80;;;;;;;;;;5023051;28;20017;-62
2021/08/21 12:37:35;;;;;;;8.23;4.15;;;;;;;;;;5008922;28;20027;-65
2021/08/21 12:40:12;;;;;;;7.05;3.45;;;;;;;;;;5017679;28;20519;-66
2021/08/21 12:42:38;;;;;;;6.50;3.85;;;;;;;;;;5008399;28;20499;-62
2021/08/21 12:45:37;;;;;;;6.93;3.90;;;;;;;;;;5010489;28;20113;-65
2021/08/21 12:48:07;;;;;;;8.32;4.20;;;;;;;;;;4900073;29;20506;-63
2021/08/21 12:50:39;;;;;;;5.75;4.03;;;;;;;;;;4898002;29;20056;-62
2021/08/21 12:53:05;;;;;;;6.22;3.83;;;;;;;;;;4896504;29;20037;-63
2021/08/21 12:55:32;;;;;;;13.60;4.50;;;;;;;;;;4897826;29;20025;-65
2021/08/21 12:58:08;;;;;;;7.38;3.67;;;;;;;;;;4892564;29;20544;-62
2021/08/21 13:00:38;;;;;;;17.83;4.22;;;;;;;;;;4898765;29;20495;-64
2021/08/21 13:03:20;;;;;;;11.68;4.25;;;;;;;;;;4896557;29;20063;-65
2021/08/21 13:05:56;;;;;;;10.70;4.20;;;;;;;;;;4896517;29;20038;-68
2021/08/21 13:08:42;;;;;;;6.45;3.70;;;;;;;;;;4897487;29;20036;-67
2021/08/21 13:11:08;;;;;;;7.07;3.75;;;;;;;;;;4897200;29;20052;-66
2021/08/21 13:13:35;;;;;;;6.90;4.05;;;;;;;;;;4896455;29;20510;-62
2021/08/21 13:16:02;;;;;;;6.47;3.80;;;;;;;;;;4901365;29;20521;-63
2021/08/21 13:18:28;;;;;;;9.32;4.30;;;;;;;;;;4896973;29;20560;-63
2021/08/21 13:20:54;;;;;;;8.73;3.80;;;;;;;;;;4896171;29;20044;-67
2021/08/21 13:23:20;;;;;;;15.23;4.32;;;;;;;;;;4939455;28;20046;-62
2021/08/21 13:25:46;;;;;;;4.63;3.72;;;;;;;;;;5000820;28;20026;-61
2021/08/21 13:28:12;;;;;;;6.43;3.72;;;;;;;;;;5001867;28;20049;-66
2021/08/21 13:30:38;;;;;;;6.07;4.30;;;;;;;;;;5007638;28;20064;-64
2021/08/21 13:33:04;;;;;;;7.57;4.35;;;;;;;;;;5001121;28;20022;-62
2021/08/21 13:35:30;;;;;;;6.22;4.07;;;;;;;;;;5005040;28;20526;-62
2021/08/21 13:37:56;;;;;;;5.97;4.03;;;;;;;;;;5009274;28;20467;-68
2021/08/21 13:40:23;;;;;;;5.82;3.85;;;;;;;;;;4994581;28;20130;-67
2021/08/21 13:42:49;;;;;;;5.68;3.58;;;;;;;;;;4993763;28;20050;-63
2021/08/21 13:45:15;;;;;;;6.60;3.90;;;;;;;;;;5011394;28;20184;-69
2021/08/21 13:47:42;;;;;;;8.20;4.25;;;;;;;;;;5015524;28;20029;-66
2021/08/21 13:50:08;;;;;;;6.75;4.03;;;;;;;;;;4999964;28;20095;-66
2021/08/21 13:52:34;;;;;;;4.68;3.65;;;;;;;;;;5003756;28;20030;-67
2021/08/21 13:55:00;;;;;;;7.63;3.95;;;;;;;;;;4998288;28;20029;-67
2021/08/21 13:57:26;;;;;;;13.50;4.40;;;;;;;;;;4999400;28;20105;-70
2021/08/21 13:59:54;;;;;;;4.93;3.83;;;;;;;;;;4998364;28;20376;-62
2021/08/21 14:02:21;;;;;;;5.50;3.70;;;;;;;;;;4999174;28;20031;-66
2021/08/21 14:04:47;;;;;;;5.20;3.90;;;;;;;;;;4983873;28;20046;-65
2021/08/21 14:07:13;;;;;;;6.28;3.95;;;;;;;;;;4998697;28;20041;-63
2021/08/21 14:09:40;;;;;;;6.13;4.10;;;;;;;;;;4998726;28;20052;-66
2021/08/21 14:12:06;;;;;;;7.57;4.20;;;;;;;;;;5002766;28;20108;-70
2021/08/21 14:14:33;;;;;;;15.23;4.45;;;;;;;;;;5002640;28;20044;-65
2021/08/21 14:17:01;;;;;;;12.25;4.30;;;;;;;;;;5000793;28;20440;-62
2021/08/21 14:19:27;;;;;;;14.63;4.53;;;;;;;;;;4996269;28;20027;-70
2021/08/21 14:21:53;;;;;;;5.97;3.90;;;;;;;;;;5002374;28;20031;-63
2021/08/21 14:24:19;;;;;;;9.98;4.30;;;;;;;;;;5017682;28;20112;-70
2021/08/21 14:26:45;;;;;;;8.00;4.07;;;;;;;;;;5010489;28;20025;-62
2021/08/21 14:29:11;;;;;;;5.80;4.30;;;;;;;;;;4994026;28;20141;-67
2021/08/21 14:31:37;;;;;;;7.07;3.80;;;;;;;;;;4999905;28;20058;-66
2021/08/21 14:34:06;;;;;;;8.88;3.97;;;;;;;;;;4999760;28;20035;-62
2021/08/21 14:36:32;;;;;;;13.88;4.90;;;;;;;;;;5000793;28;20080;-62
2021/08/21 14:38:58;;;;;;;8.77;3.92;;;;;;;;;;5004379;28;20080;-63
2021/08/21 14:41:24;;;;;;;8.15;4.35;;;;;;;;;;4995659;28;20084;-62
2021/08/21 14:43:51;;;;;;;5.35;3.95;;;;;;;;;;5000403;28;20444;-62
2021/08/21 14:46:18;;;;;;;10.00;4.68;;;;;;;;;;5006325;28;20471;-63
2021/08/21 14:48:44;;;;;;;8.05;4.40;;;;;;;;;;5006627;28;20043;-66
2021/08/21 14:51:10;;;;;;;9.10;4.00;;;;;;;;;;5004794;28;20034;-65
2021/08/21 14:53:38;;;;;;;5.35;4.15;;;;;;;;;;5002414;28;20376;-62
2021/08/21 14:56:04;;;;;;;6.70;3.80;;;;;;;;;;5005184;28;20026;-62
2021/08/21 14:58:30;;;;;;;5.70;3.80;;;;;;;;;;5002073;28;20072;-67
2021/08/21 15:00:56;;;;;;;10.43;4.50;;;;;;;;;;4999360;28;20030;-63
2021/08/21 15:03:22;;;;;;;5.57;3.88;;;;;;;;;;5009028;28;20459;-63
2021/08/21 15:05:48;;;;;;;8.40;4.10;;;;;;;;;;5002710;28;20098;-63
2021/08/21 15:08:14;;;;;;;8.18;3.90;;;;;;;;;;5007278;28;20026;-63
2021/08/21 15:10:41;;;;;;;6.57;4.30;;;;;;;;;;5007322;28;20138;-69